Time;durP1;ratioP1;P1;durP2;ratioP2;P2;SDS_P1;SDS_P2;PMS_P1;PMS_P2;Temp;Humidity;BMP_temperature;BMP_pressure;BME280_temperature;BME280_humidity;BME280_pressure;Samples;Min_cycle;Max_cycle;Signal;HPM_P1;HPM_P2
2022/05/30 00:00:18;;;;;;;7.90;2.53;;;;;;;8.71;84.18;101193.94;5053525;28;20415;-79
2022/05/30 00:02:43;;;;;;;8.77;2.40;;;;;;;8.65;83.98;101191.63;5040865;28;20494;-79
2022/05/30 00:05:10;;;;;;;13.30;2.72;;;;;;;8.57;83.03;101194.78;5062863;28;20104;-79
2022/05/30 00:07:36;;;;;;;8.60;2.20;;;;;;;8.51;84.17;101187.97;5056370;28;20021;-80
2022/05/30 00:10:03;;;;;;;12.05;2.60;;;;;;;8.44;83.72;101183.03;5052087;28;20036;-80
2022/05/30 00:12:28;;;;;;;7.70;2.55;;;;;;;8.42;83.59;101187.59;5050571;28;20106;-80
2022/05/30 00:14:54;;;;;;;5.13;2.40;;;;;;;8.44;82.64;101183.03;5054099;28;20024;-80
2022/05/30 00:17:19;;;;;;;11.63;3.00;;;;;;;8.42;83.30;101190.28;5050965;28;20051;-80
2022/05/30 00:19:44;;;;;;;9.65;2.40;;;;;;;8.37;83.55;101183.38;5069277;28;20052;-80
2022/05/30 00:22:11;;;;;;;10.45;2.55;;;;;;;8.35;84.06;101184.44;5053032;28;20024;-80
2022/05/30 00:24:37;;;;;;;10.88;2.78;;;;;;;8.32;84.28;101189.97;5066687;28;20039;-80
2022/05/30 00:27:03;;;;;;;14.52;2.90;;;;;;;8.34;84.35;101180.03;5062477;28;20032;-80
2022/05/30 00:29:29;;;;;;;12.80;2.80;;;;;;;8.32;84.78;101181.94;5054122;28;20036;-80
2022/05/30 00:31:55;;;;;;;10.27;2.80;;;;;;;8.34;85.05;101186.22;5050880;28;20448;-80
2022/05/30 00:34:21;;;;;;;8.88;2.65;;;;;;;8.38;85.45;101189.59;5063158;28;20171;-80
2022/05/30 00:36:46;;;;;;;12.82;3.20;;;;;;;8.38;85.77;101179.75;5068812;28;20088;-80
2022/05/30 00:39:12;;;;;;;13.88;2.83;;;;;;;8.40;85.81;101183.22;5054713;28;20538;-79
2022/05/30 00:41:37;;;;;;;9.07;2.50;;;;;;;8.43;85.56;101175.94;5053053;28;20025;-79
2022/05/30 00:44:03;;;;;;;15.30;3.63;;;;;;;8.45;85.98;101177.63;5058558;28;20385;-79
2022/05/30 00:46:28;;;;;;;11.48;3.15;;;;;;;8.47;86.02;101169.50;5066801;28;20073;-81
2022/05/30 00:48:57;;;;;;;11.38;2.97;;;;;;;8.46;86.02;101165.94;5053748;28;20024;-80
2022/05/30 00:51:31;;;;;;;13.52;3.05;;;;;;;8.47;85.85;101174.84;5057693;28;20387;-80
2022/05/30 00:53:58;;;;;;;13.70;3.08;;;;;;;8.46;85.85;101162.41;5051308;28;20086;-79
2022/05/30 00:56:27;;;;;;;15.25;3.58;;;;;;;8.47;86.20;101167.66;5050868;28;20068;-80
2022/05/30 00:58:54;;;;;;;8.93;3.00;;;;;;;8.48;85.93;101163.19;5049309;28;20047;-80
2022/05/30 01:01:20;;;;;;;11.02;2.90;;;;;;;8.49;86.27;101171.13;5060774;28;20051;-80
2022/05/30 01:06:36;;;;;;;10.35;2.97;;;;;;;8.49;86.12;101165.78;5067024;28;20034;-80
2022/05/30 01:09:07;;;;;;;12.05;3.10;;;;;;;8.44;86.21;101157.13;5049003;28;20094;-80
2022/05/30 01:11:57;;;;;;;12.38;3.10;;;;;;;8.50;85.75;101161.25;5053347;28;20513;-80
2022/05/30 01:14:25;;;;;;;9.40;2.88;;;;;;;8.43;85.52;101160.72;5062403;28;20039;-80
2022/05/30 01:16:50;;;;;;;14.80;3.42;;;;;;;8.40;85.37;101160.91;5054056;28;20032;-79
2022/05/30 01:19:51;;;;;;;13.70;3.42;;;;;;;8.39;85.74;101170.78;5067219;28;20036;-79
2022/05/30 01:22:25;;;;;;;18.55;3.67;;;;;;;8.34;86.49;101159.44;5068139;28;20025;-79
2022/05/30 01:25:14;;;;;;;13.20;3.10;;;;;;;8.35;86.12;101163.88;5070378;28;20028;-80
2022/05/30 01:28:00;;;;;;;17.17;3.20;;;;;;;8.31;86.50;101165.00;5059551;28;20090;-80
2022/05/30 01:30:26;;;;;;;11.88;3.00;;;;;;;8.27;86.74;101160.75;5050344;28;20458;-80
2022/05/30 01:32:56;;;;;;;13.18;3.17;;;;;;;8.27;86.94;101158.09;5061580;28;20087;-79
2022/05/30 01:35:24;;;;;;;10.10;3.30;;;;;;;8.28;87.04;101158.97;5050728;28;20033;-79
2022/05/30 01:37:49;;;;;;;13.52;3.13;;;;;;;8.29;86.67;101155.34;5056819;28;20029;-79
2022/05/30 01:40:15;;;;;;;13.43;3.38;;;;;;;8.26;86.64;101148.34;5049372;28;20032;-79
2022/05/30 01:42:40;;;;;;;10.30;3.05;;;;;;;8.27;86.42;101146.53;5055190;28;20075;-79
2022/05/30 01:45:06;;;;;;;14.13;3.47;;;;;;;8.27;86.68;101144.69;5069207;28;20040;-79
2022/05/30 01:47:31;;;;;;;12.50;3.55;;;;;;;8.25;86.95;101138.56;5055215;28;20074;-79
2022/05/30 01:49:57;;;;;;;13.38;3.53;;;;;;;8.26;87.29;101145.66;5060599;28;20111;-79
2022/05/30 01:52:22;;;;;;;11.23;3.10;;;;;;;8.26;86.76;101142.09;5051304;28;20059;-79
2022/05/30 01:54:47;;;;;;;10.93;3.10;;;;;;;8.25;87.21;101145.75;5051634;28;20057;-79
2022/05/30 01:57:12;;;;;;;12.88;3.70;;;;;;;8.26;87.02;101151.03;5052012;28;20360;-79
2022/05/30 01:59:38;;;;;;;15.18;3.42;;;;;;;8.27;86.76;101142.00;5082857;28;20029;-81
2022/05/30 02:02:03;;;;;;;13.73;3.08;;;;;;;8.27;87.21;101136.66;5051225;28;20025;-80
2022/05/30 02:04:29;;;;;;;13.63;4.03;;;;;;;8.29;87.13;101137.44;5042352;28;20033;-80
2022/05/30 02:06:54;;;;;;;15.57;4.05;;;;;;;8.29;86.86;101140.13;5056046;28;20043;-79
2022/05/30 02:09:19;;;;;;;12.85;3.45;;;;;;;8.34;87.12;101140.69;5050951;28;20376;-79
2022/05/30 02:11:44;;;;;;;16.73;4.00;;;;;;;8.33;86.87;101147.03;5059435;28;20117;-79
2022/05/30 02:14:10;;;;;;;13.20;3.42;;;;;;;8.33;87.16;101144.34;5064452;28;20503;-79
2022/05/30 02:19:23;;;;;;;14.98;3.50;;;;;;;8.31;87.27;101135.53;5065365;28;20052;-80
2022/05/30 02:21:48;;;;;;;11.60;3.60;;;;;;;8.34;87.50;101130.00;5066832;28;20027;-80
2022/05/30 02:24:13;;;;;;;8.35;3.22;;;;;;;8.34;87.53;101142.53;5058020;28;20111;-80
2022/05/30 02:26:39;;;;;;;11.18;3.67;;;;;;;8.33;87.83;101136.31;5050001;28;20138;-80
2022/05/30 02:29:05;;;;;;;19.17;4.18;;;;;;;8.30;87.44;101133.81;5057840;28;20119;-79
2022/05/30 02:31:31;;;;;;;18.25;4.40;;;;;;;8.28;87.57;101135.72;5069900;28;20028;-79
2022/05/30 02:36:42;;;;;;;14.88;4.18;;;;;;;8.26;87.75;101128.72;5060077;28;20132;-80
2022/05/30 02:39:19;;;;;;;15.10;4.65;;;;;;;8.26;87.96;101131.41;5071809;28;20040;-80
2022/05/30 02:41:45;;;;;;;16.13;4.20;;;;;;;8.21;87.56;101120.97;5056168;28;20029;-80
2022/05/30 02:44:11;;;;;;;18.45;4.55;;;;;;;8.21;87.56;101118.28;5054597;28;20499;-80
2022/05/30 02:46:37;;;;;;;15.48;4.40;;;;;;;8.24;87.30;101128.81;5068346;28;20055;-80
2022/05/30 02:49:02;;;;;;;13.48;4.15;;;;;;;8.16;87.18;101123.91;5069854;28;20071;-80
2022/05/30 02:51:27;;;;;;;17.17;5.05;;;;;;;8.13;87.24;101129.44;5093924;28;20020;-80
2022/05/30 02:53:53;;;;;;;18.52;5.50;;;;;;;8.12;87.66;101129.53;5091972;28;20032;-80
2022/05/30 02:56:19;;;;;;;13.15;4.03;;;;;;;8.10;87.19;101132.31;5070424;28;20074;-80
2022/05/30 02:58:44;;;;;;;15.65;4.93;;;;;;;8.07;86.86;101126.25;5054644;28;20036;-80
2022/05/30 03:01:10;;;;;;;16.48;4.45;;;;;;;8.04;87.22;101125.50;5071758;28;20087;-80
2022/05/30 03:03:36;;;;;;;15.57;5.00;;;;;;;8.01;87.18;101127.50;5073338;28;20032;-80
2022/05/30 03:06:03;;;;;;;13.07;4.45;;;;;;;7.97;86.89;101132.16;5056890;28;20400;-80
2022/05/30 03:08:28;;;;;;;16.70;4.45;;;;;;;7.94;87.45;101129.66;5052542;28;20025;-79
2022/05/30 03:10:54;;;;;;;16.13;4.55;;;;;;;7.91;87.44;101131.66;5051106;28;20098;-79
2022/05/30 03:13:19;;;;;;;13.95;4.22;;;;;;;7.85;87.43;101139.09;5071773;28;20114;-80
2022/05/30 03:15:44;;;;;;;15.95;5.00;;;;;;;7.82;87.74;101143.75;5055763;28;20029;-80
2022/05/30 03:18:10;;;;;;;17.38;4.90;;;;;;;7.82;87.94;101146.44;5051551;28;20472;-80
2022/05/30 03:20:35;;;;;;;15.20;4.32;;;;;;;7.79;87.96;101138.56;5051854;28;20029;-80
2022/05/30 03:23:01;;;;;;;18.42;5.25;;;;;;;7.81;88.29;101139.34;5063235;28;20133;-80
2022/05/30 03:25:26;;;;;;;18.00;4.30;;;;;;;7.79;88.47;101144.78;5053989;28;20033;-80
2022/05/30 03:27:53;;;;;;;15.80;5.18;;;;;;;7.78;88.27;101148.41;5053784;28;20037;-79
2022/05/30 03:30:19;;;;;;;17.73;4.57;;;;;;;7.78;88.23;101152.91;5054047;28;20033;-80
2022/05/30 03:32:44;;;;;;;16.42;5.13;;;;;;;7.79;87.91;101152.81;5055761;28;20392;-80
2022/05/30 03:35:11;;;;;;;16.25;4.95;;;;;;;7.79;88.36;101143.91;5051553;28;20021;-80
2022/05/30 03:37:38;;;;;;;16.95;5.60;;;;;;;7.79;88.25;101149.25;5052721;28;20434;-80
2022/05/30 03:40:07;;;;;;;13.52;4.53;;;;;;;7.75;87.79;101153.09;5056439;28;20028;-79
2022/05/30 03:42:33;;;;;;;17.05;5.20;;;;;;;7.79;87.92;101157.28;5062913;28;20029;-79
2022/05/30 03:44:58;;;;;;;17.27;5.43;;;;;;;7.74;87.69;101160.22;5050649;28;20021;-79
2022/05/30 03:47:23;;;;;;;18.58;5.55;;;;;;;7.72;87.78;101166.59;5055951;28;20048;-79
2022/05/30 03:49:49;;;;;;;19.92;5.82;;;;;;;7.72;87.88;101167.50;5081795;28;20414;-79
2022/05/30 03:52:14;;;;;;;16.10;5.05;;;;;;;7.72;87.99;101159.47;5064840;28;20124;-79
2022/05/30 03:54:40;;;;;;;23.48;5.80;;;;;;;7.74;88.25;101164.72;5051974;28;20025;-79
2022/05/30 03:57:06;;;;;;;15.52;5.05;;;;;;;7.75;88.20;101161.13;5064360;28;20028;-80
2022/05/30 03:59:31;;;;;;;27.15;5.63;;;;;;;7.74;88.12;101165.59;5052936;28;20408;-80
2022/05/30 04:01:56;;;;;;;19.52;6.32;;;;;;;7.76;88.37;101169.06;5050972;28;20048;-80
2022/05/30 04:04:22;;;;;;;14.80;4.70;;;;;;;7.76;88.62;101157.47;5059914;28;20032;-80
2022/05/30 04:06:47;;;;;;;19.58;6.15;;;;;;;7.79;88.22;101163.53;5059570;28;20021;-80
2022/05/30 04:09:13;;;;;;;22.15;6.10;;;;;;;7.84;88.45;101153.41;5050411;28;20024;-81
2022/05/30 04:11:38;;;;;;;18.85;5.78;;;;;;;7.87;88.30;101155.06;5066865;28;20448;-79
2022/05/30 04:14:03;;;;;;;21.58;6.35;;;;;;;7.90;88.50;101157.56;5068316;28;20067;-79
2022/05/30 04:16:28;;;;;;;20.30;5.85;;;;;;;7.88;88.74;101148.75;5059765;28;20029;-80
2022/05/30 04:18:54;;;;;;;21.13;5.65;;;;;;;7.87;88.39;101145.19;5052529;28;20028;-80
2022/05/30 04:21:19;;;;;;;19.15;6.30;;;;;;;7.89;88.65;101142.44;5056808;28;20040;-80
2022/05/30 04:23:45;;;;;;;19.67;5.47;;;;;;;7.88;88.30;101148.75;5056492;28;20020;-79
2022/05/30 04:26:14;;;;;;;21.20;6.18;;;;;;;7.86;87.97;101147.97;5070103;28;20036;-79
2022/05/30 04:28:39;;;;;;;23.75;5.85;;;;;;;7.86;87.89;101156.00;5057059;28;20538;-79
2022/05/30 04:31:07;;;;;;;19.23;6.07;;;;;;;7.88;87.85;101154.09;5066010;28;20032;-80
2022/05/30 04:33:34;;;;;;;19.25;5.45;;;;;;;7.87;87.53;101155.06;5067713;28;20048;-80
2022/05/30 04:36:02;;;;;;;22.33;5.97;;;;;;;7.80;87.74;101156.34;5051332;28;20468;-80
2022/05/30 04:38:28;;;;;;;17.05;6.03;;;;;;;7.77;87.87;101156.53;5065474;28;20070;-80
2022/05/30 04:40:53;;;;;;;19.08;6.13;;;;;;;7.74;87.43;101167.41;5065178;28;20036;-79
2022/05/30 04:43:19;;;;;;;17.00;5.22;;;;;;;7.70;87.43;101164.91;5060221;28;20028;-80
2022/05/30 04:45:44;;;;;;;18.52;6.15;;;;;;;7.65;87.71;101166.97;5059479;28;20021;-80
2022/05/30 04:48:09;;;;;;;18.17;5.07;;;;;;;7.63;87.93;101174.22;5063139;28;20039;-80
2022/05/30 04:50:35;;;;;;;21.38;5.57;;;;;;;7.60;88.19;101176.19;5070853;28;20024;-80
2022/05/30 04:53:00;;;;;;;21.95;6.80;;;;;;;7.61;88.32;101168.06;5054267;28;20043;-80
2022/05/30 04:55:25;;;;;;;20.23;6.55;;;;;;;7.66;88.65;101171.38;5050973;28;20104;-79
2022/05/30 04:57:51;;;;;;;22.65;5.80;;;;;;;7.68;88.78;101174.81;5052086;28;20538;-80
2022/05/30 05:00:20;;;;;;;26.33;5.97;;;;;;;7.70;88.99;101175.59;5054282;28;20071;-80
2022/05/30 05:02:46;;;;;;;24.42;7.40;;;;;;;7.75;88.25;101170.00;5072594;28;20021;-80
2022/05/30 05:05:12;;;;;;;20.30;6.45;;;;;;;7.81;88.66;101166.09;5067407;28;20495;-80
2022/05/30 05:07:55;;;;;;;21.15;6.97;;;;;;;7.92;88.36;101166.38;5060665;28;20087;-80
2022/05/30 05:10:34;;;;;;;20.42;6.70;;;;;;;8.01;88.48;101170.34;5051571;28;20035;-80
2022/05/30 05:12:59;;;;;;;20.52;6.70;;;;;;;8.08;87.51;101169.00;5052800;28;20036;-79
2022/05/30 05:15:25;;;;;;;19.45;6.97;;;;;;;8.16;87.22;101168.56;5054133;28;20344;-79
2022/05/30 05:17:50;;;;;;;20.70;7.10;;;;;;;8.22;86.52;101165.53;5064585;28;20028;-79
2022/05/30 05:20:15;;;;;;;19.30;6.78;;;;;;;8.31;86.55;101169.50;5054840;28;20024;-79
2022/05/30 05:22:40;;;;;;;21.67;7.35;;;;;;;8.36;86.72;101173.63;5051177;28;20036;-79
2022/05/30 05:25:07;;;;;;;26.20;7.75;;;;;;;8.42;85.56;101177.78;5056607;28;20072;-79
2022/05/30 05:27:32;;;;;;;23.88;7.68;;;;;;;8.48;86.18;101171.22;5060463;28;20392;-79
2022/05/30 05:29:57;;;;;;;20.48;7.55;;;;;;;8.53;86.23;101174.47;5051855;28;20035;-79
2022/05/30 05:32:22;;;;;;;22.20;7.18;;;;;;;8.59;86.64;101179.47;5056379;28;20659;-79
2022/05/30 05:34:50;;;;;;;19.40;7.43;;;;;;;8.64;86.33;101179.19;5071632;28;20123;-80
2022/05/30 05:37:16;;;;;;;22.17;6.43;;;;;;;8.68;86.10;101180.72;5055054;28;20350;-80
2022/05/30 05:39:42;;;;;;;21.52;7.03;;;;;;;8.76;86.83;101178.47;5055508;28;20036;-79
2022/05/30 05:42:08;;;;;;;20.45;7.15;;;;;;;8.82;87.09;101185.28;5061714;28;20028;-79
2022/05/30 05:44:33;;;;;;;24.52;6.72;;;;;;;8.86;85.66;101182.31;5058464;28;20021;-79
2022/05/30 05:46:58;;;;;;;20.73;5.82;;;;;;;8.92;85.00;101183.75;5060923;28;20031;-79
2022/05/30 05:49:24;;;;;;;19.95;6.30;;;;;;;8.99;84.38;101187.78;5055234;28;20028;-80
2022/05/30 05:51:56;;;;;;;17.13;5.03;;;;;;;9.04;83.19;101193.72;5057510;28;20029;-80
2022/05/30 05:54:23;;;;;;;17.38;5.38;;;;;;;9.08;83.77;101189.88;5066934;28;20101;-80
2022/05/30 05:56:49;;;;;;;19.85;4.90;;;;;;;9.12;81.49;101189.69;5064115;28;20021;-80
2022/05/30 05:59:15;;;;;;;17.73;5.28;;;;;;;9.16;81.47;101196.59;5061956;28;20032;-80
2022/05/30 06:01:40;;;;;;;18.25;5.65;;;;;;;9.23;81.37;101193.44;5061190;28;20131;-80
2022/05/30 06:04:07;;;;;;;20.05;5.53;;;;;;;9.30;81.66;101199.28;5064881;28;20037;-80
2022/05/30 06:06:33;;;;;;;19.45;4.68;;;;;;;9.38;80.93;101199.66;5070813;28;20159;-80
2022/05/30 06:09:01;;;;;;;20.75;5.13;;;;;;;9.49;79.75;101193.63;5073643;28;20450;-80
2022/05/30 06:11:27;;;;;;;17.42;4.95;;;;;;;9.57;80.93;101196.66;5064005;28;20036;-82
2022/05/30 06:13:53;;;;;;;14.60;4.57;;;;;;;9.67;80.92;101194.28;5070257;28;20039;-80
2022/05/30 06:16:24;;;;;;;17.42;4.82;;;;;;;9.74;82.29;101192.06;5063909;28;20028;-81
2022/05/30 06:18:51;;;;;;;18.08;4.88;;;;;;;9.78;81.83;101193.56;5067141;28;20033;-80
2022/05/30 06:21:17;;;;;;;18.90;5.10;;;;;;;9.83;79.35;101201.34;5066819;28;20017;-80
2022/05/30 06:23:45;;;;;;;15.35;3.92;;;;;;;9.87;77.62;101198.38;5063251;28;20044;-80
2022/05/30 06:26:11;;;;;;;11.15;3.63;;;;;;;9.92;75.53;101200.75;5067817;28;20077;-80
2022/05/30 06:28:38;;;;;;;14.38;3.72;;;;;;;9.97;77.94;101201.28;5048773;28;20359;-81
2022/05/30 06:31:30;;;;;;;13.15;3.63;;;;;;;10.03;78.57;101197.34;5062801;28;20025;-81
2022/05/30 06:33:58;;;;;;;15.32;4.50;;;;;;;10.07;77.42;101191.69;5063470;28;20028;-81
2022/05/30 06:36:24;;;;;;;15.63;4.35;;;;;;;10.11;76.19;101195.88;5070403;28;20488;-81
2022/05/30 06:38:51;;;;;;;19.60;4.45;;;;;;;10.17;78.51;101207.22;5071555;28;20031;-81
2022/05/30 06:41:24;;;;;;;14.00;3.90;;;;;;;10.25;79.62;101202.16;5074645;28;20024;-81
2022/05/30 06:43:55;;;;;;;11.95;3.65;;;;;;;10.31;76.19;101208.00;5070495;28;20070;-81
2022/05/30 06:46:21;;;;;;;12.90;3.78;;;;;;;10.39;74.46;101210.22;5065350;28;20486;-80
2022/05/30 06:48:47;;;;;;;12.60;4.18;;;;;;;10.48;76.91;101208.72;5076391;28;20032;-81
2022/05/30 06:51:16;;;;;;;15.52;3.65;;;;;;;10.56;74.60;101201.03;5091156;28;20081;-81
2022/05/30 06:53:43;;;;;;;15.38;3.20;;;;;;;10.66;73.20;101209.34;5053375;28;20158;-80
2022/05/30 06:56:13;;;;;;;14.60;3.67;;;;;;;10.83;74.48;101205.47;5052291;28;20033;-80
2022/05/30 06:58:38;;;;;;;;;;;;;;;10.98;76.22;101207.13;5055861;28;20032;-80
2022/05/30 07:01:03;;;;;;;10.50;2.97;;;;;;;11.11;71.81;101207.13;5071022;28;20382;-80
2022/05/30 07:03:29;;;;;;;7.20;2.50;;;;;;;11.19;67.95;101210.13;5069299;28;20024;-80
2022/05/30 07:05:55;;;;;;;8.55;2.47;;;;;;;11.25;71.35;101208.00;5069257;28;20133;-81
2022/05/30 07:08:20;;;;;;;12.40;2.90;;;;;;;11.30;68.46;101211.19;5070885;28;20035;-81
2022/05/30 07:10:46;;;;;;;12.10;3.10;;;;;;;11.33;67.26;101201.09;5066572;28;20538;-81
2022/05/30 07:13:11;;;;;;;8.63;2.58;;;;;;;11.41;67.09;101208.63;5087045;28;20035;-81
2022/05/30 07:15:37;;;;;;;10.60;2.35;;;;;;;11.47;65.66;101205.47;5083299;28;20060;-81
2022/05/30 07:18:14;;;;;;;10.15;2.72;;;;;;;11.49;65.60;101206.25;5057492;28;20373;-80
2022/05/30 07:20:40;;;;;;;12.93;2.50;;;;;;;11.53;67.49;101207.72;5078665;28;20052;-78
2022/05/30 07:23:06;;;;;;;7.10;2.60;;;;;;;11.56;69.93;101206.66;5089404;28;20023;-77
2022/05/30 07:25:36;;;;;;;8.85;2.42;;;;;;;11.51;66.02;101208.84;5079933;28;20364;-77
2022/05/30 07:28:03;;;;;;;9.20;2.30;;;;;;;11.52;65.98;101210.53;5069746;28;20021;-77
2022/05/30 07:30:29;;;;;;;8.40;2.13;;;;;;;11.55;65.37;101215.69;5071134;28;20118;-77
2022/05/30 07:32:55;;;;;;;6.72;1.88;;;;;;;11.56;64.27;101219.25;5069691;28;20046;-78
2022/05/30 07:35:20;;;;;;;5.93;2.17;;;;;;;11.56;67.85;101220.09;5069922;28;20048;-78
2022/05/30 07:37:46;;;;;;;9.98;2.80;;;;;;;11.53;65.60;101218.50;5070001;28;20044;-78
2022/05/30 07:40:12;;;;;;;9.27;2.47;;;;;;;11.47;66.04;101216.25;5070619;28;20028;-78
2022/05/30 07:42:38;;;;;;;10.82;3.45;;;;;;;11.48;65.29;101217.97;5069704;28;20024;-78
2022/05/30 07:45:03;;;;;;;10.05;2.63;;;;;;;11.47;63.93;101216.25;5070534;28;20104;-78
2022/05/30 07:47:28;;;;;;;5.57;1.88;;;;;;;11.49;62.16;101211.63;5070572;28;20044;-79
2022/05/30 07:49:54;;;;;;;7.90;2.13;;;;;;;11.50;62.66;101207.09;5074208;28;20025;-79
2022/05/30 07:52:19;;;;;;;7.15;2.38;;;;;;;11.48;63.42;101207.22;5058294;28;20024;-81
2022/05/30 07:54:45;;;;;;;7.18;1.90;;;;;;;11.49;63.14;101205.38;5057012;28;20503;-81
2022/05/30 07:57:10;;;;;;;8.07;2.25;;;;;;;11.57;61.49;101200.31;5069878;28;20028;-81
2022/05/30 07:59:36;;;;;;;6.35;1.77;;;;;;;11.65;55.16;101207.81;5065409;28;20044;-80
2022/05/30 08:02:03;;;;;;;5.32;1.83;;;;;;;11.78;57.07;101208.66;5071013;28;20443;-81
2022/05/30 08:04:28;;;;;;;3.42;1.95;;;;;;;11.93;58.47;101208.50;5071524;28;20079;-81
2022/05/30 08:06:53;;;;;;;11.90;2.70;;;;;;;12.09;59.57;101205.56;5065090;28;20044;-81
2022/05/30 08:09:19;;;;;;;5.25;1.92;;;;;;;12.22;58.53;101204.53;5061705;28;20334;-81
2022/05/30 08:11:44;;;;;;;6.97;2.20;;;;;;;12.32;57.91;101196.63;5075351;28;20096;-81
2022/05/30 08:14:10;;;;;;;10.77;2.92;;;;;;;12.43;62.89;101195.84;5068870;28;20032;-81
2022/05/30 08:16:37;;;;;;;9.23;2.42;;;;;;;12.43;62.29;101201.22;5068459;28;20078;-81
2022/05/30 08:19:07;;;;;;;7.72;2.30;;;;;;;12.39;61.62;101208.66;5071937;28;20032;-81
2022/05/30 08:21:33;;;;;;;3.55;1.95;;;;;;;12.34;62.83;101213.56;5065861;28;20451;-81
2022/05/30 08:23:59;;;;;;;6.63;2.60;;;;;;;12.24;59.59;101213.38;5064765;28;20025;-81
2022/05/30 08:26:24;;;;;;;9.55;2.17;;;;;;;12.13;60.42;101216.00;5069830;28;20107;-81
2022/05/30 08:28:49;;;;;;;7.80;2.10;;;;;;;12.04;64.06;101211.31;5068591;28;20036;-81
2022/05/30 08:31:16;;;;;;;4.43;1.98;;;;;;;11.93;61.16;101217.47;5069153;28;20094;-81
2022/05/30 08:33:42;;;;;;;7.28;2.42;;;;;;;11.84;60.37;101218.13;5074779;28;20025;-81
2022/05/30 08:36:11;;;;;;;10.85;2.80;;;;;;;11.78;62.97;101211.34;5076972;28;20024;-81
2022/05/30 08:38:37;;;;;;;8.02;2.45;;;;;;;11.75;62.77;101208.03;5078652;28;20028;-81
2022/05/30 08:43:51;;;;;;;10.35;2.58;;;;;;;11.70;60.18;101219.13;5070146;28;20746;-81
2022/05/30 08:46:36;;;;;;;10.50;2.10;;;;;;;11.72;60.36;101219.88;5070132;28;20021;-80
2022/05/30 08:49:22;;;;;;;9.70;2.13;;;;;;;11.74;59.58;101222.44;5078762;28;20077;-81
2022/05/30 08:52:09;;;;;;;8.65;2.67;;;;;;;11.77;59.77;101219.53;5050308;28;20436;-81
2022/05/30 08:54:55;;;;;;;7.10;2.38;;;;;;;11.89;59.74;101221.34;5050249;28;20052;-81
2022/05/30 08:57:41;;;;;;;9.23;2.25;;;;;;;12.00;60.06;101220.59;5052294;28;20031;-81
2022/05/30 09:00:09;;;;;;;11.57;3.17;;;;;;;12.12;59.21;101218.81;5064957;28;20142;-80
2022/05/30 09:02:41;;;;;;;10.07;2.88;;;;;;;12.26;58.68;101218.66;5069903;28;20020;-80
2022/05/30 09:05:14;;;;;;;7.80;2.00;;;;;;;12.39;57.64;101216.75;5069242;28;20451;-81
2022/05/30 09:07:46;;;;;;;7.40;2.15;;;;;;;12.55;59.35;101210.22;5070306;28;20052;-81
2022/05/30 09:10:17;;;;;;;9.35;2.10;;;;;;;12.65;58.41;101219.34;5071097;28;20039;-80
2022/05/30 09:12:45;;;;;;;11.07;2.50;;;;;;;12.72;55.21;101217.88;5071405;28;20498;-81
2022/05/30 09:15:17;;;;;;;6.63;1.85;;;;;;;12.85;54.73;101225.03;5063422;28;20430;-82
2022/05/30 09:17:56;;;;;;;7.95;2.20;;;;;;;12.99;56.31;101223.94;5067746;28;20494;-81
2022/05/30 09:20:23;;;;;;;8.82;2.22;;;;;;;13.07;56.15;101218.81;5071739;28;20464;-81
2022/05/30 09:22:49;;;;;;;12.13;2.70;;;;;;;13.05;53.11;101226.19;5054048;28;20041;-81
2022/05/30 09:28:07;;;;;;;5.07;1.98;;;;;;;13.06;54.19;101217.97;5051369;28;20043;-81
2022/05/30 09:30:48;;;;;;;11.05;2.38;;;;;;;13.07;57.17;101211.56;5051406;28;20017;-81
2022/05/30 09:33:35;;;;;;;7.72;2.22;;;;;;;13.03;57.30;101217.34;5054863;28;20038;-81
2022/05/30 09:36:29;;;;;;;7.13;2.20;;;;;;;12.96;53.35;101211.56;5062170;28;20396;-81
2022/05/30 09:39:14;;;;;;;4.55;1.80;;;;;;;12.90;54.33;101215.59;5056936;28;20017;-81
2022/05/30 09:41:39;;;;;;;5.72;1.95;;;;;;;12.89;54.16;101213.03;5056265;28;20032;-82
2022/05/30 09:44:21;;;;;;;8.80;2.45;;;;;;;12.88;53.49;101212.16;5055722;28;20116;-82
2022/05/30 09:46:58;;;;;;;6.18;1.98;;;;;;;12.90;55.51;101222.84;5055699;28;20378;-80
2022/05/30 09:49:26;;;;;;;4.97;1.92;;;;;;;12.86;52.58;101224.91;5079457;28;20176;-81
2022/05/30 09:51:55;;;;;;;7.40;2.30;;;;;;;12.85;53.50;101215.09;5076471;28;20041;-81
2022/05/30 09:54:23;;;;;;;9.05;2.17;;;;;;;12.87;54.26;101215.84;5072046;28;20063;-81
2022/05/30 09:56:49;;;;;;;10.48;2.22;;;;;;;12.81;53.29;101220.84;5086962;28;20029;-81
2022/05/30 09:59:24;;;;;;;6.80;2.17;;;;;;;12.81;54.90;101221.72;5058145;28;20074;-81
2022/05/30 10:01:51;;;;;;;8.57;2.75;;;;;;;12.73;52.57;101216.88;5064247;28;20028;-81
2022/05/30 10:05:01;;;;;;;7.97;2.20;;;;;;;12.74;54.16;101221.31;5063616;28;20399;-81
2022/05/30 10:07:28;;;;;;;6.47;2.13;;;;;;;12.63;52.35;101228.50;4979123;28;20173;-81
2022/05/30 10:09:58;;;;;;;8.25;2.17;;;;;;;12.65;52.78;101226.53;4977026;28;20088;-81
2022/05/30 10:12:29;;;;;;;5.43;2.00;;;;;;;12.62;52.82;101219.56;4994236;28;20498;-81
2022/05/30 10:14:55;;;;;;;10.82;2.65;;;;;;;12.70;52.50;101221.69;4975846;28;20058;-81
2022/05/30 10:17:28;;;;;;;6.20;2.50;;;;;;;12.87;56.01;101215.84;4991215;28;20030;-80
2022/05/30 10:19:54;;;;;;;11.10;2.72;;;;;;;13.02;52.77;101213.78;4983465;28;20154;-80
2022/05/30 10:28:43;;;;;;;13.00;2.78;;;;;;;13.54;53.33;101213.38;4991774;28;20056;-78
2022/05/30 10:31:45;;;;;;;15.93;2.67;;;;;;;13.63;52.79;101218.91;4971541;28;20066;-80
2022/05/30 10:34:51;;;;;;;10.45;2.58;;;;;;;13.72;52.19;101213.72;4978848;28;20030;-80
2022/05/30 10:37:54;;;;;;;7.60;2.30;;;;;;;13.82;50.63;101222.81;4993174;28;20393;-81
2022/05/30 10:40:45;;;;;;;4.80;1.90;;;;;;;14.00;52.00;101225.88;5056685;28;20021;-80
2022/05/30 10:43:18;;;;;;;7.90;2.13;;;;;;;14.15;49.84;101224.59;5032788;28;20040;-81
2022/05/30 10:46:06;;;;;;;4.03;1.67;;;;;;;14.31;49.25;101229.59;5069231;28;20094;-80
2022/05/30 10:48:42;;;;;;;11.25;2.65;;;;;;;14.42;48.20;101225.13;5060100;28;20020;-81
2022/05/30 10:51:22;;;;;;;6.50;1.98;;;;;;;14.49;48.75;101219.09;5064555;28;20519;-80
2022/05/30 10:54:02;;;;;;;4.57;1.90;;;;;;;14.45;47.47;101223.03;5067649;28;20027;-81
2022/05/30 10:56:31;;;;;;;6.47;2.22;;;;;;;14.38;45.95;101229.06;5072031;28;20036;-80
2022/05/30 10:59:16;;;;;;;11.03;2.20;;;;;;;14.34;48.58;101223.06;5073059;28;20338;-81
2022/05/30 11:01:51;;;;;;;3.60;2.00;;;;;;;14.20;47.36;101226.91;5043168;28;20025;-81
2022/05/30 11:04:36;;;;;;;7.38;1.75;;;;;;;14.13;47.85;101226.56;5060886;28;20427;-81
2022/05/30 11:07:31;;;;;;;6.57;2.00;;;;;;;14.07;49.69;101227.09;5069509;28;20043;-81
2022/05/30 11:10:07;;;;;;;11.00;2.90;;;;;;;13.99;52.01;101230.41;5057790;28;20129;-80
2022/05/30 11:12:41;;;;;;;9.75;2.90;;;;;;;13.90;51.97;101231.16;5066540;28;20029;-80
2022/05/30 11:15:39;;;;;;;8.55;2.67;;;;;;;13.86;52.42;101229.69;5068162;28;20526;-80
2022/05/30 11:18:17;;;;;;;11.02;3.03;;;;;;;13.77;51.90;101235.84;5067020;28;20035;-81
2022/05/30 11:21:04;;;;;;;12.98;2.80;;;;;;;13.77;52.43;101227.72;5073306;28;20349;-81
2022/05/30 11:23:30;;;;;;;11.57;3.20;;;;;;;13.72;51.04;101225.41;5068758;28;20043;-80
2022/05/30 11:26:25;;;;;;;12.43;2.75;;;;;;;13.73;52.84;101228.97;5063136;28;20355;-80
2022/05/30 11:29:16;;;;;;;6.97;2.88;;;;;;;13.75;53.51;101227.84;5075768;28;20093;-81
2022/05/30 11:31:49;;;;;;;10.38;3.30;;;;;;;13.70;51.28;101224.66;5063296;28;20439;-80
2022/05/30 11:34:42;;;;;;;15.95;3.33;;;;;;;13.75;52.67;101235.97;5069532;28;20032;-80
2022/05/30 11:37:35;;;;;;;8.43;2.67;;;;;;;13.77;51.86;101227.72;5075777;28;20028;-81
2022/05/30 11:40:14;;;;;;;12.07;3.00;;;;;;;13.75;52.21;101235.97;5079290;28;20029;-81
2022/05/30 11:43:09;;;;;;;11.80;2.67;;;;;;;13.82;53.05;101239.00;5069125;28;20013;-80
2022/05/30 11:46:01;;;;;;;10.90;2.88;;;;;;;13.87;52.43;101236.81;5080029;28;20036;-81
2022/05/30 11:48:51;;;;;;;8.90;2.90;;;;;;;13.91;51.50;101229.31;5061314;28;20448;-81
2022/05/30 11:51:37;;;;;;;10.10;2.65;;;;;;;13.91;49.82;101235.59;5062739;28;20032;-80
2022/05/30 11:54:21;;;;;;;11.05;3.20;;;;;;;13.89;48.26;101237.53;5070521;28;20028;-80
2022/05/30 11:57:24;;;;;;;10.00;2.88;;;;;;;13.88;49.01;101226.84;5070910;28;20518;-81